sensor_id;sensor_type;location;lat;lon;timestamp;pressure;altitude;pressure_sealevel;temperature;humidity
55301;BME280;58302;51.446;-2.000;2023-04-01T00:00:32;98981.88;;;8.54;100.00
55301;BME280;58302;51.446;-2.000;2023-04-01T00:02:58;98981.88;;;8.54;100.00
55301;BME280;58302;51.446;-2.000;2023-04-01T00:05:25;98981.06;;;8.53;100.00
55301;BME280;58302;51.446;-2.000;2023-04-01T00:07:51;98978.34;;;8.53;100.00
55301;BME280;58302;51.446;-2.000;2023-04-01T00:10:17;98977.75;;;8.56;100.00
55301;BME280;58302;51.446;-2.000;2023-04-01T00:12:43;98985.38;;;8.54;100.00
55301;BME280;58302;51.446;-2.000;2023-04-01T00:15:11;98990.50;;;8.56;100.00
55301;BME280;58302;51.446;-2.000;2023-04-01T00:17:37;98988.59;;;8.56;100.00
55301;BME280;58302;51.446;-2.000;2023-04-01T00:20:05;98992.94;;;8.57;100.00
55301;BME280;58302;51.446;-2.000;2023-04-01T00:22:32;99001.31;;;8.56;100.00
55301;BME280;58302;51.446;-2.000;2023-04-01T00:24:59;98995.09;;;8.55;100.00
55301;BME280;58302;51.446;-2.000;2023-04-01T00:27:25;99001.31;;;8.56;100.00
55301;BME280;58302;51.446;-2.000;2023-04-01T00:29:51;98998.34;;;8.57;100.00
55301;BME280;58302;51.446;-2.000;2023-04-01T00:32:17;98999.16;;;8.58;100.00
55301;BME280;58302;51.446;-2.000;2023-04-01T00:34:43;99000.47;;;8.60;100.00
55301;BME280;58302;51.446;-2.000;2023-04-01T00:37:10;99004.50;;;8.63;100.00
55301;BME280;58302;51.446;-2.000;2023-04-01T00:39:37;99004.28;;;8.59;100.00
55301;BME280;58302;51.446;-2.000;2023-04-01T00:42:03;99004.28;;;8.59;100.00
55301;BME280;58302;51.446;-2.000;2023-04-01T00:44:31;99010.75;;;8.63;100.00
55301;BME280;58302;51.446;-2.000;2023-04-01T00:46:58;99004.78;;;8.61;100.00
55301;BME280;58302;51.446;-2.000;2023-04-01T00:49:28;99006.94;;;8.64;100.00
55301;BME280;58302;51.446;-2.000;2023-04-01T00:51:57;99009.94;;;8.63;100.00
55301;BME280;58302;51.446;-2.000;2023-04-01T00:54:29;99015.63;;;8.61;100.00
55301;BME280;58302;51.446;-2.000;2023-04-01T00:57:00;99012.91;;;8.61;100.00
55301;BME280;58302;51.446;-2.000;2023-04-01T00:59:31;99022.63;;;8.62;100.00
55301;BME280;58302;51.446;-2.000;2023-04-01T01:01:58;99024.84;;;8.60;100.00
55301;BME280;58302;51.446;-2.000;2023-04-01T01:04:27;99026.44;;;8.61;100.00
55301;BME280;58302;51.446;-2.000;2023-04-01T01:07:07;99018.91;;;8.58;100.00
55301;BME280;58302;51.446;-2.000;2023-04-01T01:10:04;99025.44;;;8.57;100.00
55301;BME280;58302;51.446;-2.000;2023-04-01T01:12:40;99024.88;;;8.55;100.00
55301;BME280;58302;51.446;-2.000;2023-04-01T01:26:52;99024.88;;;8.55;100.00
55301;BME280;58302;51.446;-2.000;2023-04-01T01:38:03;99033.56;;;8.57;100.00
55301;BME280;58302;51.446;-2.000;2023-04-01T01:40:31;99036.25;;;8.57;100.00
55301;BME280;58302;51.446;-2.000;2023-04-01T01:43:04;99036.81;;;8.54;100.00
55301;BME280;58302;51.446;-2.000;2023-04-01T01:45:33;99041.69;;;8.57;100.00
55301;BME280;58302;51.446;-2.000;2023-04-01T01:48:02;99046.56;;;8.55;100.00
55301;BME280;58302;51.446;-2.000;2023-04-01T01:50:31;99053.06;;;8.54;100.00
55301;BME280;58302;51.446;-2.000;2023-04-01T01:53:05;99055.78;;;8.54;100.00
55301;BME280;58302;51.446;-2.000;2023-04-01T01:55:34;99047.66;;;8.54;100.00
55301;BME280;58302;51.446;-2.000;2023-04-01T02:00:59;99063.66;;;8.51;100.00
55301;BME280;58302;51.446;-2.000;2023-04-01T02:03:29;99056.63;;;8.50;100.00
55301;BME280;58302;51.446;-2.000;2023-04-01T02:05:59;99066.09;;;8.52;100.00
55301;BME280;58302;51.446;-2.000;2023-04-01T02:08:29;99071.22;;;8.54;100.00
55301;BME280;58302;51.446;-2.000;2023-04-01T02:11:03;99068.25;;;8.50;100.00
55301;BME280;58302;51.446;-2.000;2023-04-01T02:13:43;99074.47;;;8.51;100.00
55301;BME280;58302;51.446;-2.000;2023-04-01T02:16:14;99074.47;;;8.51;100.00
55301;BME280;58302;51.446;-2.000;2023-04-01T02:18:44;99075.28;;;8.51;100.00
55301;BME280;58302;51.446;-2.000;2023-04-01T02:21:11;99082.38;;;8.47;100.00
55301;BME280;58302;51.446;-2.000;2023-04-01T02:23:38;99070.75;;;8.47;100.00
55301;BME280;58302;51.446;-2.000;2023-04-01T02:26:07;99079.91;;;8.51;100.00
55301;BME280;58302;51.446;-2.000;2023-04-01T02:28:35;99076.44;;;8.45;100.00
55301;BME280;58302;51.446;-2.000;2023-04-01T02:31:03;99082.09;;;8.49;100.00
55301;BME280;58302;51.446;-2.000;2023-04-01T02:33:30;99076.69;;;8.49;100.00
55301;BME280;58302;51.446;-2.000;2023-04-01T02:35:58;99078.06;;;8.46;100.00
55301;BME280;58302;51.446;-2.000;2023-04-01T02:38:25;99081.84;;;8.45;100.00
55301;BME280;58302;51.446;-2.000;2023-04-01T02:40:57;99086.69;;;8.48;100.00
55301;BME280;58302;51.446;-2.000;2023-04-01T02:43:23;99091.31;;;8.48;100.00
55301;BME280;58302;51.446;-2.000;2023-04-01T02:45:49;99087.00;;;8.47;100.00
55301;BME280;58302;51.446;-2.000;2023-04-01T02:48:15;99091.06;;;8.44;100.00
55301;BME280;58302;51.446;-2.000;2023-04-01T02:50:41;99098.63;;;8.47;100.00
55301;BME280;58302;51.446;-2.000;2023-04-01T02:53:08;99085.34;;;8.45;100.00
55301;BME280;58302;51.446;-2.000;2023-04-01T02:55:34;99087.25;;;8.45;100.00
55301;BME280;58302;51.446;-2.000;2023-04-01T02:58:00;99087.56;;;8.43;100.00
55301;BME280;58302;51.446;-2.000;2023-04-01T03:00:26;99094.56;;;8.44;100.00
55301;BME280;58302;51.446;-2.000;2023-04-01T03:02:53;99103.50;;;8.45;100.00
55301;BME280;58302;51.446;-2.000;2023-04-01T03:05:19;99097.81;;;8.47;100.00
55301;BME280;58302;51.446;-2.000;2023-04-01T03:07:45;99101.38;;;8.42;100.00
55301;BME280;58302;51.446;-2.000;2023-04-01T03:10:11;99100.56;;;8.41;100.00
55301;BME280;58302;51.446;-2.000;2023-04-01T03:12:37;99098.94;;;8.40;100.00
55301;BME280;58302;51.446;-2.000;2023-04-01T03:15:03;99110.59;;;8.41;100.00
55301;BME280;58302;51.446;-2.000;2023-04-01T03:17:29;99111.66;;;8.40;100.00
55301;BME280;58302;51.446;-2.000;2023-04-01T03:19:55;99113.31;;;8.41;100.00
55301;BME280;58302;51.446;-2.000;2023-04-01T03:22:21;99110.06;;;8.39;100.00
55301;BME280;58302;51.446;-2.000;2023-04-01T03:24:48;99104.94;;;8.37;100.00
55301;BME280;58302;51.446;-2.000;2023-04-01T03:27:14;99120.06;;;8.38;100.00
55301;BME280;58302;51.446;-2.000;2023-04-01T03:29:40;99112.50;;;8.35;100.00
55301;BME280;58302;51.446;-2.000;2023-04-01T03:32:06;99122.28;;;8.36;100.00
55301;BME280;58302;51.446;-2.000;2023-04-01T03:34:32;99121.69;;;8.34;100.00
55301;BME280;58302;51.446;-2.000;2023-04-01T03:36:58;99113.34;;;8.31;100.00
55301;BME280;58302;51.446;-2.000;2023-04-01T03:39:24;99116.31;;;8.29;100.00
55301;BME280;58302;51.446;-2.000;2023-04-01T03:41:50;99128.50;;;8.32;100.00
55301;BME280;58302;51.446;-2.000;2023-04-01T03:44:16;99123.63;;;8.29;100.00
55301;BME280;58302;51.446;-2.000;2023-04-01T03:46:42;99126.34;;;8.29;100.00
55301;BME280;58302;51.446;-2.000;2023-04-01T03:49:09;99122.03;;;8.28;100.00
55301;BME280;58302;51.446;-2.000;2023-04-01T03:51:39;99135.28;;;8.29;100.00
55301;BME280;58302;51.446;-2.000;2023-04-01T03:54:06;99133.44;;;8.25;100.00
55301;BME280;58302;51.446;-2.000;2023-04-01T03:56:32;99137.78;;;8.21;100.00
55301;BME280;58302;51.446;-2.000;2023-04-01T03:59:01;99133.47;;;8.19;100.00
55301;BME280;58302;51.446;-2.000;2023-04-01T04:01:28;99138.31;;;8.23;100.00
55301;BME280;58302;51.446;-2.000;2023-04-01T04:03:55;99138.88;;;8.19;100.00
55301;BME280;58302;51.446;-2.000;2023-04-01T04:06:22;99141.59;;;8.19;100.00
55301;BME280;58302;51.446;-2.000;2023-04-01T04:08:49;99143.75;;;8.17;100.00
55301;BME280;58302;51.446;-2.000;2023-04-01T04:11:15;99146.75;;;8.16;100.00
55301;BME280;58302;51.446;-2.000;2023-04-01T04:13:43;99149.19;;;8.12;100.00
55301;BME280;58302;51.446;-2.000;2023-04-01T04:16:09;99147.59;;;8.11;100.00
55301;BME280;58302;51.446;-2.000;2023-04-01T04:18:36;99151.38;;;8.10;100.00
55301;BME280;58302;51.446;-2.000;2023-04-01T04:21:03;99151.66;;;8.09;100.00
55301;BME280;58302;51.446;-2.000;2023-04-01T04:23:29;99156.28;;;8.08;100.00
55301;BME280;58302;51.446;-2.000;2023-04-01T04:25:58;99156.53;;;8.07;100.00
55301;BME280;58302;51.446;-2.000;2023-04-01T04:28:25;99150.91;;;8.03;100.00
55301;BME280;58302;51.446;-2.000;2023-04-01T04:30:52;99153.06;;;8.01;100.00
55301;BME280;58302;51.446;-2.000;2023-04-01T04:33:19;99159.56;;;8.00;100.00
55301;BME280;58302;51.446;-2.000;2023-04-01T04:35:45;99159.03;;;7.98;100.00
55301;BME280;58302;51.446;-2.000;2023-04-01T04:38:11;99161.47;;;7.95;100.00
55301;BME280;58302;51.446;-2.000;2023-04-01T04:40:38;99167.69;;;8.00;100.00
55301;BME280;58302;51.446;-2.000;2023-04-01T04:43:04;99175.28;;;7.98;100.00
55301;BME280;58302;51.446;-2.000;2023-04-01T04:45:30;99176.38;;;7.97;100.00
55301;BME280;58302;51.446;-2.000;2023-04-01T04:47:56;99168.78;;;7.99;100.00
55301;BME280;58302;51.446;-2.000;2023-04-01T04:50:23;99182.59;;;7.98;100.00
55301;BME280;58302;51.446;-2.000;2023-04-01T04:52:50;99181.19;;;8.00;100.00
55301;BME280;58302;51.446;-2.000;2023-04-01T04:55:16;99184.47;;;7.97;100.00
55301;BME280;58302;51.446;-2.000;2023-04-01T04:57:42;99183.38;;;7.98;100.00
55301;BME280;58302;51.446;-2.000;2023-04-01T05:00:09;99177.72;;;7.95;100.00
55301;BME280;58302;51.446;-2.000;2023-04-01T05:02:38;99183.41;;;7.93;100.00
55301;BME280;58302;51.446;-2.000;2023-04-01T05:05:05;99188.00;;;7.98;100.00
55301;BME280;58302;51.446;-2.000;2023-04-01T05:07:31;99180.13;;;7.96;100.00
55301;BME280;58302;51.446;-2.000;2023-04-01T05:09:57;99185.28;;;7.98;100.00
55301;BME280;58302;51.446;-2.000;2023-04-01T05:12:23;99199.63;;;7.98;100.00
55301;BME280;58302;51.446;-2.000;2023-04-01T05:14:48;99199.84;;;8.02;100.00
55301;BME280;58302;51.446;-2.000;2023-04-01T05:17:14;99192.84;;;8.01;100.00
55301;BME280;58302;51.446;-2.000;2023-04-01T05:19:40;99194.72;;;8.00;100.00
55301;BME280;58302;51.446;-2.000;2023-04-01T05:22:06;99202.31;;;7.98;100.00
55301;BME280;58302;51.446;-2.000;2023-04-01T05:24:32;99197.72;;;7.99;100.00
55301;BME280;58302;51.446;-2.000;2023-04-01T05:26:59;99198.56;;;7.94;100.00
55301;BME280;58302;51.446;-2.000;2023-04-01T05:29:26;99212.06;;;7.99;100.00
55301;BME280;58302;51.446;-2.000;2023-04-01T05:31:52;99210.44;;;7.98;100.00
55301;BME280;58302;51.446;-2.000;2023-04-01T05:34:18;99215.31;;;7.96;100.00
55301;BME280;58302;51.446;-2.000;2023-04-01T05:36:44;99216.13;;;7.97;100.00
55301;BME280;58302;51.446;-2.000;2023-04-01T05:39:10;99227.78;;;7.97;100.00
55301;BME280;58302;51.446;-2.000;2023-04-01T05:41:36;99221.81;;;7.95;100.00
55301;BME280;58302;51.446;-2.000;2023-04-01T05:44:03;99217.19;;;7.96;100.00
55301;BME280;58302;51.446;-2.000;2023-04-01T05:46:30;99214.25;;;7.92;100.00
55301;BME280;58302;51.446;-2.000;2023-04-01T05:48:57;99223.72;;;7.95;100.00
55301;BME280;58302;51.446;-2.000;2023-04-01T05:51:23;99227.25;;;7.90;100.00
55301;BME280;58302;51.446;-2.000;2023-04-01T05:53:49;99230.75;;;7.90;100.00
55301;BME280;58302;51.446;-2.000;2023-04-01T05:56:15;99237.53;;;7.93;100.00
55301;BME280;58302;51.446;-2.000;2023-04-01T05:58:41;99236.16;;;7.90;100.00
55301;BME280;58302;51.446;-2.000;2023-04-01T06:01:09;99245.91;;;7.91;100.00
55301;BME280;58302;51.446;-2.000;2023-04-01T06:03:36;99240.75;;;7.90;100.00
55301;BME280;58302;51.446;-2.000;2023-04-01T06:06:02;99244.84;;;7.87;100.00
55301;BME280;58302;51.446;-2.000;2023-04-01T06:08:31;99248.66;;;7.86;100.00
55301;BME280;58302;51.446;-2.000;2023-04-01T06:10:59;99248.66;;;7.86;100.00
55301;BME280;58302;51.446;-2.000;2023-04-01T06:21:54;99263.22;;;7.85;100.00
55301;BME280;58302;51.446;-2.000;2023-04-01T06:30:05;99272.69;;;7.88;100.00
55301;BME280;58302;51.446;-2.000;2023-04-01T06:35:54;99282.94;;;7.91;100.00
55301;BME280;58302;51.446;-2.000;2023-04-01T06:44:09;99293.53;;;7.92;100.00
55301;BME280;58302;51.446;-2.000;2023-04-01T06:46:46;99297.56;;;7.95;100.00
55301;BME280;58302;51.446;-2.000;2023-04-01T06:54:36;99306.22;;;7.97;100.00
55301;BME280;58302;51.446;-2.000;2023-04-01T06:59:51;99301.34;;;7.94;100.00
55301;BME280;58302;51.446;-2.000;2023-04-01T07:02:36;99298.09;;;7.97;100.00
55301;BME280;58302;51.446;-2.000;2023-04-01T07:05:05;99309.72;;;7.98;100.00
55301;BME280;58302;51.446;-2.000;2023-04-01T07:07:39;99302.44;;;7.98;100.00
55301;BME280;58302;51.446;-2.000;2023-04-01T07:10:13;99311.63;;;8.02;100.00
55301;BME280;58302;51.446;-2.000;2023-04-01T07:12:46;99314.56;;;8.01;100.00
55301;BME280;58302;51.446;-2.000;2023-04-01T07:15:22;99326.78;;;7.98;100.00
55301;BME280;58302;51.446;-2.000;2023-04-01T07:18:02;99320.81;;;7.91;100.00
55301;BME280;58302;51.446;-2.000;2023-04-01T07:20:29;99328.94;;;7.91;100.00
55301;BME280;58302;51.446;-2.000;2023-04-01T07:22:59;99330.59;;;7.92;100.00
55301;BME280;58302;51.446;-2.000;2023-04-01T07:25:34;99328.41;;;7.94;100.00
55301;BME280;58302;51.446;-2.000;2023-04-01T07:28:12;99339.22;;;7.99;100.00
55301;BME280;58302;51.446;-2.000;2023-04-01T07:30:52;99338.09;;;8.05;100.00
55301;BME280;58302;51.446;-2.000;2023-04-01T07:33:32;99334.31;;;8.06;100.00
55301;BME280;58302;51.446;-2.000;2023-04-01T07:36:16;99340.53;;;8.07;100.00
55301;BME280;58302;51.446;-2.000;2023-04-01T07:38:57;99344.03;;;8.12;100.00
55301;BME280;58302;51.446;-2.000;2023-04-01T07:55:06;99366.00;;;8.70;100.00
55301;BME280;58302;51.446;-2.000;2023-04-01T08:05:49;99386.00;;;8.80;100.00
55301;BME280;58302;51.446;-2.000;2023-04-01T08:19:29;99397.81;;;8.99;100.00
55301;BME280;58302;51.446;-2.000;2023-04-01T08:22:25;99400.53;;;8.94;100.00
55301;BME280;58302;51.446;-2.000;2023-04-01T08:24:54;99406.50;;;8.96;100.00
55301;BME280;58302;51.446;-2.000;2023-04-01T08:27:37;99410.25;;;9.00;100.00
55301;BME280;58302;51.446;-2.000;2023-04-01T08:30:19;99410.81;;;9.02;100.00
55301;BME280;58302;51.446;-2.000;2023-04-01T08:32:51;99416.19;;;9.07;100.00
55301;BME280;58302;51.446;-2.000;2023-04-01T08:35:39;99418.00;;;9.17;100.00
55301;BME280;58302;51.446;-2.000;2023-04-01T08:38:23;99425.88;;;9.18;100.00
55301;BME280;58302;51.446;-2.000;2023-04-01T08:41:16;99428.00;;;9.21;100.00
55301;BME280;58302;51.446;-2.000;2023-04-01T08:46:57;99436.16;;;9.16;100.00
55301;BME280;58302;51.446;-2.000;2023-04-01T08:49:33;99436.34;;;8.91;100.00
55301;BME280;58302;51.446;-2.000;2023-04-01T08:52:22;99445.59;;;8.80;100.00
55301;BME280;58302;51.446;-2.000;2023-04-01T09:05:47;99456.09;;;8.96;100.00
55301;BME280;58302;51.446;-2.000;2023-04-01T09:08:36;99468.25;;;9.04;100.00
55301;BME280;58302;51.446;-2.000;2023-04-01T09:14:06;99470.97;;;8.99;100.00
55301;BME280;58302;51.446;-2.000;2023-04-01T09:27:57;99495.38;;;8.94;100.00
55301;BME280;58302;51.446;-2.000;2023-04-01T09:38:58;99504.31;;;9.44;100.00
55301;BME280;58302;51.446;-2.000;2023-04-01T09:41:35;99504.34;;;9.39;100.00
55301;BME280;58302;51.446;-2.000;2023-04-01T09:44:21;99510.88;;;9.38;100.00
55301;BME280;58302;51.446;-2.000;2023-04-01T09:57:53;99533.53;;;9.96;100.00
55301;BME280;58302;51.446;-2.000;2023-04-01T10:32:37;99597.16;;;10.82;100.00
55301;BME280;58302;51.446;-2.000;2023-04-01T10:40:34;99612.50;;;10.39;100.00
55301;BME280;58302;51.446;-2.000;2023-04-01T10:49:00;99627.13;;;10.43;100.00
55301;BME280;58302;51.446;-2.000;2023-04-01T10:54:19;99640.38;;;10.11;100.00
55301;BME280;58302;51.446;-2.000;2023-04-01T10:59:33;99645.56;;;10.07;100.00
55301;BME280;58302;51.446;-2.000;2023-04-01T11:08:18;99644.72;;;11.57;100.00
55301;BME280;58302;51.446;-2.000;2023-04-01T11:11:21;99649.06;;;11.82;100.00
55301;BME280;58302;51.446;-2.000;2023-04-01T11:34:13;99692.44;;;10.96;100.00
55301;BME280;58302;51.446;-2.000;2023-04-01T11:37:03;99700.31;;;11.27;100.00
55301;BME280;58302;51.446;-2.000;2023-04-01T11:45:35;99714.06;;;11.35;100.00
55301;BME280;58302;51.446;-2.000;2023-04-01T11:48:37;99724.28;;;11.20;100.00
55301;BME280;58302;51.446;-2.000;2023-04-01T11:53:44;99740.16;;;10.78;100.00
55301;BME280;58302;51.446;-2.000;2023-04-01T12:02:07;99758.66;;;10.32;100.00
55301;BME280;58302;51.446;-2.000;2023-04-01T12:07:37;99768.56;;;10.08;100.00
55301;BME280;58302;51.446;-2.000;2023-04-01T12:10:33;99776.78;;;9.82;100.00
55301;BME280;58302;51.446;-2.000;2023-04-01T12:18:50;99790.16;;;9.58;100.00
55301;BME280;58302;51.446;-2.000;2023-04-01T12:27:31;99817.56;;;9.46;100.00
55301;BME280;58302;51.446;-2.000;2023-04-01T13:01:23;99864.50;;;9.62;100.00
55301;BME280;58302;51.446;-2.000;2023-04-01T13:10:01;99877.53;;;9.45;100.00
55301;BME280;58302;51.446;-2.000;2023-04-01T13:12:52;99882.41;;;9.43;100.00
55301;BME280;58302;51.446;-2.000;2023-04-01T13:15:37;99884.28;;;9.42;100.00
55301;BME280;58302;51.446;-2.000;2023-04-01T13:18:30;99887.56;;;9.34;100.00
55301;BME280;58302;51.446;-2.000;2023-04-01T13:23:57;99901.09;;;9.49;100.00
55301;BME280;58302;51.446;-2.000;2023-04-01T13:29:33;99910.88;;;9.40;100.00
55301;BME280;58302;51.446;-2.000;2023-04-01T13:37:32;99921.91;;;10.15;100.00
55301;BME280;58302;51.446;-2.000;2023-04-01T13:40:33;99921.03;;;10.55;100.00
55301;BME280;58302;51.446;-2.000;2023-04-01T13:54:40;99944.53;;;10.80;100.00
55301;BME280;58302;51.446;-2.000;2023-04-01T14:00:03;99953.63;;;10.61;100.00
55301;BME280;58302;51.446;-2.000;2023-04-01T14:05:47;99963.72;;;10.45;100.00
55301;BME280;58302;51.446;-2.000;2023-04-01T14:08:36;99973.53;;;10.25;100.00
55301;BME280;58302;51.446;-2.000;2023-04-01T14:20:22;100008.56;;;9.86;100.00
55301;BME280;58302;51.446;-2.000;2023-04-01T14:23:13;99995.50;;;10.14;100.00
55301;BME280;58302;51.446;-2.000;2023-04-01T14:26:04;99998.22;;;10.49;100.00
55301;BME280;58302;51.446;-2.000;2023-04-01T14:50:31;100039.63;;;10.96;100.00
55301;BME280;58302;51.446;-2.000;2023-04-01T14:58:15;100048.75;;;11.70;100.00
55301;BME280;58302;51.446;-2.000;2023-04-01T15:03:38;100059.47;;;12.00;100.00
55301;BME280;58302;51.446;-2.000;2023-04-01T15:12:15;100067.59;;;11.66;100.00
55301;BME280;58302;51.446;-2.000;2023-04-01T15:15:03;100061.75;;;11.88;100.00
55301;BME280;58302;51.446;-2.000;2023-04-01T15:23:25;100076.84;;;12.97;100.00
55301;BME280;58302;51.446;-2.000;2023-04-01T15:28:25;100077.38;;;13.17;100.00
55301;BME280;58302;51.446;-2.000;2023-04-01T15:36:44;100088.50;;;13.69;100.00
55301;BME280;58302;51.446;-2.000;2023-04-01T15:39:24;100087.91;;;13.29;100.00
55301;BME280;58302;51.446;-2.000;2023-04-01T15:45:07;100090.69;;;12.76;100.00
55301;BME280;58302;51.446;-2.000;2023-04-01T15:47:45;100102.41;;;12.48;100.00
55301;BME280;58302;51.446;-2.000;2023-04-01T15:50:41;100112.47;;;12.13;100.00
55301;BME280;58302;51.446;-2.000;2023-04-01T15:56:59;100114.81;;;11.91;100.00
55301;BME280;58302;51.446;-2.000;2023-04-01T15:59:20;100122.06;;;11.56;100.00
55301;BME280;58302;51.446;-2.000;2023-04-01T16:02:38;100118.66;;;11.25;100.00
55301;BME280;58302;51.446;-2.000;2023-04-01T16:08:17;100140.44;;;11.20;100.00
55301;BME280;58302;51.446;-2.000;2023-04-01T16:14:03;100155.06;;;11.39;100.00
55301;BME280;58302;51.446;-2.000;2023-04-01T16:22:57;100164.72;;;10.91;100.00
55301;BME280;58302;51.446;-2.000;2023-04-01T16:24:55;100169.88;;;10.92;100.00
55301;BME280;58302;51.446;-2.000;2023-04-01T16:27:54;100174.22;;;10.93;100.00
55301;BME280;58302;51.446;-2.000;2023-04-01T16:30:41;100186.19;;;10.92;100.00
55301;BME280;58302;51.446;-2.000;2023-04-01T16:33:19;100183.72;;;11.01;100.00
55301;BME280;58302;51.446;-2.000;2023-04-01T16:35:59;100185.63;;;11.00;100.00
55301;BME280;58302;51.446;-2.000;2023-04-01T16:38:48;100200.59;;;10.88;100.00
55301;BME280;58302;51.446;-2.000;2023-04-01T16:41:24;100201.69;;;10.81;100.00
55301;BME280;58302;51.446;-2.000;2023-04-01T16:44:18;100210.94;;;10.80;100.00
55301;BME280;58302;51.446;-2.000;2023-04-01T16:46:47;100202.78;;;10.65;100.00
55301;BME280;58302;51.446;-2.000;2023-04-01T16:54:50;100218.53;;;10.48;100.00
55301;BME280;58302;51.446;-2.000;2023-04-01T17:02:44;100238.09;;;10.35;100.00
55301;BME280;58302;51.446;-2.000;2023-04-01T17:05:13;100239.97;;;10.34;100.00
55301;BME280;58302;51.446;-2.000;2023-04-01T17:07:46;100245.13;;;10.31;100.00
55301;BME280;58302;51.446;-2.000;2023-04-01T17:10:17;100247.28;;;10.23;100.00
55301;BME280;58302;51.446;-2.000;2023-04-01T17:12:58;100246.44;;;10.23;100.00
55301;BME280;58302;51.446;-2.000;2023-04-01T17:21:16;100264.63;;;10.17;100.00
55301;BME280;58302;51.446;-2.000;2023-04-01T17:23:52;100266.25;;;10.13;100.00
55301;BME280;58302;51.446;-2.000;2023-04-01T17:26:39;100282.81;;;10.12;100.00
55301;BME280;58302;51.446;-2.000;2023-04-01T17:33:07;100289.59;;;10.14;100.00
55301;BME280;58302;51.446;-2.000;2023-04-01T17:43:30;100312.31;;;9.93;100.00
55301;BME280;58302;51.446;-2.000;2023-04-01T17:54:37;100331.69;;;9.64;100.00
55301;BME280;58302;51.446;-2.000;2023-04-01T18:05:24;100364.09;;;9.44;100.00
55301;BME280;58302;51.446;-2.000;2023-04-01T18:26:29;100407.63;;;9.00;100.00
55301;BME280;58302;51.446;-2.000;2023-04-01T18:31:45;100412.72;;;8.91;100.00
55301;BME280;58302;51.446;-2.000;2023-04-01T18:37:28;100433.72;;;8.79;100.00
55301;BME280;58302;51.446;-2.000;2023-04-01T18:40:21;100433.66;;;8.74;100.00
55301;BME280;58302;51.446;-2.000;2023-04-01T18:43:05;100444.19;;;8.70;100.00
55301;BME280;58302;51.446;-2.000;2023-04-01T18:45:40;100451.44;;;8.65;100.00
55301;BME280;58302;51.446;-2.000;2023-04-01T18:48:49;100456.28;;;8.63;100.00
55301;BME280;58302;51.446;-2.000;2023-04-01T18:56:31;100480.41;;;8.64;100.00
55301;BME280;58302;51.446;-2.000;2023-04-01T18:59:32;100483.69;;;8.66;100.00
55301;BME280;58302;51.446;-2.000;2023-04-01T19:02:08;100487.72;;;8.64;100.00
55301;BME280;58302;51.446;-2.000;2023-04-01T19:04:46;100497.75;;;8.63;100.00
55301;BME280;58302;51.446;-2.000;2023-04-01T19:15:46;100520.91;;;8.54;100.00
55301;BME280;58302;51.446;-2.000;2023-04-01T19:24:13;100533.06;;;8.52;100.00
55301;BME280;58302;51.446;-2.000;2023-04-01T19:30:16;100556.56;;;8.46;100.00
55301;BME280;58302;51.446;-2.000;2023-04-01T19:38:41;100568.34;;;8.40;100.00
55301;BME280;58302;51.446;-2.000;2023-04-01T19:43:59;100563.47;;;8.37;100.00
55301;BME280;58302;51.446;-2.000;2023-04-01T19:46:35;100570.97;;;8.35;100.00
55301;BME280;58302;51.446;-2.000;2023-04-01T19:49:19;100585.81;;;8.32;100.00
55301;BME280;58302;51.446;-2.000;2023-04-01T20:04:36;100608.56;;;8.14;100.00
55301;BME280;58302;51.446;-2.000;2023-04-01T20:07:10;100614.53;;;8.16;100.00
55301;BME280;58302;51.446;-2.000;2023-04-01T20:14:53;100625.09;;;8.18;100.00
55301;BME280;58302;51.446;-2.000;2023-04-01T20:22:29;100634.94;;;8.07;100.00
55301;BME280;58302;51.446;-2.000;2023-04-01T20:25:05;100635.69;;;8.03;100.00
55301;BME280;58302;51.446;-2.000;2023-04-01T20:27:43;100648.53;;;7.96;100.00
55301;BME280;58302;51.446;-2.000;2023-04-01T20:33:32;100657.69;;;7.78;100.00
55301;BME280;58302;51.446;-2.000;2023-04-01T20:36:24;100659.22;;;7.74;100.00
55301;BME280;58302;51.446;-2.000;2023-04-01T20:41:58;100680.59;;;7.58;100.00
55301;BME280;58302;51.446;-2.000;2023-04-01T20:47:24;100696.81;;;7.58;100.00
55301;BME280;58302;51.446;-2.000;2023-04-01T20:53:12;100695.38;;;7.56;100.00
55301;BME280;58302;51.446;-2.000;2023-04-01T21:17:38;100729.94;;;7.65;100.00
55301;BME280;58302;51.446;-2.000;2023-04-01T21:33:54;100750.66;;;7.60;100.00
55301;BME280;58302;51.446;-2.000;2023-04-01T21:39:53;100762.31;;;7.60;100.00
55301;BME280;58302;51.446;-2.000;2023-04-01T21:43:26;100761.72;;;7.58;100.00
55301;BME280;58302;51.446;-2.000;2023-04-01T21:45:41;100763.81;;;7.56;100.00
55301;BME280;58302;51.446;-2.000;2023-04-01T21:51:21;100772.44;;;7.53;100.00
55301;BME280;58302;51.446;-2.000;2023-04-01T22:07:21;100789.91;;;7.62;100.00
55301;BME280;58302;51.446;-2.000;2023-04-01T22:12:40;100799.91;;;7.62;100.00
55301;BME280;58302;51.446;-2.000;2023-04-01T22:15:42;100801.22;;;7.59;100.00
55301;BME280;58302;51.446;-2.000;2023-04-01T22:18:23;100809.81;;;7.56;100.00
55301;BME280;58302;51.446;-2.000;2023-04-01T22:21:09;100813.56;;;7.55;100.00
55301;BME280;58302;51.446;-2.000;2023-04-01T22:26:27;100822.75;;;7.54;100.00
55301;BME280;58302;51.446;-2.000;2023-04-01T22:31:55;100831.31;;;7.51;100.00
55301;BME280;58302;51.446;-2.000;2023-04-01T22:39:43;100851.56;;;7.49;100.00
55301;BME280;58302;51.446;-2.000;2023-04-01T22:42:52;100858.03;;;7.48;100.00
55301;BME280;58302;51.446;-2.000;2023-04-01T22:48:14;100864.72;;;7.45;100.00
55301;BME280;58302;51.446;-2.000;2023-04-01T22:51:00;100865.78;;;7.44;100.00
55301;BME280;58302;51.446;-2.000;2023-04-01T22:53:42;100874.97;;;7.43;100.00
55301;BME280;58302;51.446;-2.000;2023-04-01T22:56:20;100867.06;;;7.42;100.00
55301;BME280;58302;51.446;-2.000;2023-04-01T22:58:54;100861.88;;;7.40;100.00
55301;BME280;58302;51.446;-2.000;2023-04-01T23:01:26;100868.59;;;7.37;100.00
55301;BME280;58302;51.446;-2.000;2023-04-01T23:03:55;100874.47;;;7.34;100.00
55301;BME280;58302;51.446;-2.000;2023-04-01T23:06:27;100878.81;;;7.35;100.00
55301;BME280;58302;51.446;-2.000;2023-04-01T23:09:08;100887.75;;;7.36;100.00